sensor_id;sensor_type;location;lat;lon;timestamp;pressure;altitude;pressure_sealevel;temperature;humidity
59289;BME280;45056;47.602;9.886;2023-03-13T00:01:25;92662.13;;;6.11;68.50
59289;BME280;45056;47.602;9.886;2023-03-13T00:03:55;92655.56;;;6.12;68.42
59289;BME280;45056;47.602;9.886;2023-03-13T00:06:26;92651.22;;;6.14;68.38
59289;BME280;45056;47.602;9.886;2023-03-13T00:08:59;92645.81;;;6.14;68.15
59289;BME280;45056;47.602;9.886;2023-03-13T00:11:28;92647.00;;;6.13;68.16
59289;BME280;45056;47.602;9.886;2023-03-13T00:13:57;92640.09;;;6.12;67.91
59289;BME280;45056;47.602;9.886;2023-03-13T00:16:28;92647.44;;;6.12;68.05
59289;BME280;45056;47.602;9.886;2023-03-13T00:18:57;92637.81;;;6.11;68.02
59289;BME280;45056;47.602;9.886;2023-03-13T00:21:28;92631.66;;;6.10;67.89
59289;BME280;45056;47.602;9.886;2023-03-13T00:23:59;92630.13;;;6.09;67.86
59289;BME280;45056;47.602;9.886;2023-03-13T00:26:28;92631.66;;;6.10;67.81
59289;BME280;45056;47.602;9.886;2023-03-13T00:28:56;92626.25;;;6.10;67.58
59289;BME280;45056;47.602;9.886;2023-03-13T00:31:27;92636.31;;;6.10;67.37
59289;BME280;45056;47.602;9.886;2023-03-13T00:33:58;92637.03;;;6.10;67.34
59289;BME280;45056;47.602;9.886;2023-03-13T00:36:31;92625.50;;;6.10;67.27
59289;BME280;45056;47.602;9.886;2023-03-13T00:39:00;92634.78;;;6.09;66.94
59289;BME280;45056;47.602;9.886;2023-03-13T00:41:31;92627.44;;;6.09;66.93
59289;BME280;45056;47.602;9.886;2023-03-13T00:44:01;92635.88;;;6.11;66.62
59289;BME280;45056;47.602;9.886;2023-03-13T00:46:30;92628.94;;;6.10;66.57
59289;BME280;45056;47.602;9.886;2023-03-13T00:48:58;92631.97;;;6.12;66.41
59289;BME280;45056;47.602;9.886;2023-03-13T00:51:28;92626.59;;;6.12;66.44
59289;BME280;45056;47.602;9.886;2023-03-13T00:53:58;92636.97;;;6.14;66.38
59289;BME280;45056;47.602;9.886;2023-03-13T00:56:27;92633.84;;;6.15;66.32
59289;BME280;45056;47.602;9.886;2023-03-13T00:58:55;92641.53;;;6.17;66.23
59289;BME280;45056;47.602;9.886;2023-03-13T01:01:25;92627.59;;;6.18;66.26
59289;BME280;45056;47.602;9.886;2023-03-13T01:03:57;92623.72;;;6.19;66.02
59289;BME280;45056;47.602;9.886;2023-03-13T01:06:30;92625.22;;;6.20;65.81
59289;BME280;45056;47.602;9.886;2023-03-13T01:09:01;92624.06;;;6.21;65.90
59289;BME280;45056;47.602;9.886;2023-03-13T01:11:33;92623.63;;;6.23;65.79
59289;BME280;45056;47.602;9.886;2023-03-13T01:14:06;92612.44;;;6.25;65.82
59289;BME280;45056;47.602;9.886;2023-03-13T01:16:36;92611.25;;;6.26;65.53
59289;BME280;45056;47.602;9.886;2023-03-13T01:19:07;92613.50;;;6.27;65.46
59289;BME280;45056;47.602;9.886;2023-03-13T01:21:38;92619.25;;;6.29;65.41
59289;BME280;45056;47.602;9.886;2023-03-13T01:24:06;92618.06;;;6.30;65.43
59289;BME280;45056;47.602;9.886;2023-03-13T01:26:35;92609.56;;;6.32;65.26
59289;BME280;45056;47.602;9.886;2023-03-13T01:29:03;92610.31;;;6.32;65.13
59289;BME280;45056;47.602;9.886;2023-03-13T01:31:33;92602.97;;;6.33;65.03
59289;BME280;45056;47.602;9.886;2023-03-13T01:34:04;92597.91;;;6.35;64.82
59289;BME280;45056;47.602;9.886;2023-03-13T01:36:35;92594.00;;;6.36;64.80
59289;BME280;45056;47.602;9.886;2023-03-13T01:39:05;92594.75;;;6.37;64.93
59289;BME280;45056;47.602;9.886;2023-03-13T01:41:33;92594.75;;;6.37;65.06
59289;BME280;45056;47.602;9.886;2023-03-13T01:44:01;92599.81;;;6.34;64.91
59289;BME280;45056;47.602;9.886;2023-03-13T01:46:30;92594.75;;;6.37;64.92
59289;BME280;45056;47.602;9.886;2023-03-13T01:49:04;92595.94;;;6.35;64.93
59289;BME280;45056;47.602;9.886;2023-03-13T01:51:38;92601.78;;;6.34;65.02
59289;BME280;45056;47.602;9.886;2023-03-13T01:54:13;92589.47;;;6.33;64.97
59289;BME280;45056;47.602;9.886;2023-03-13T01:56:50;92594.84;;;6.33;64.95
59289;BME280;45056;47.602;9.886;2023-03-13T01:59:26;92585.56;;;6.34;64.80
59289;BME280;45056;47.602;9.886;2023-03-13T02:02:02;92587.44;;;6.37;64.58
59289;BME280;45056;47.602;9.886;2023-03-13T02:04:36;92582.69;;;6.41;64.20
59289;BME280;45056;47.602;9.886;2023-03-13T02:07:13;92581.44;;;6.46;63.96
59289;BME280;45056;47.602;9.886;2023-03-13T02:09:50;92580.59;;;6.49;63.65
59289;BME280;45056;47.602;9.886;2023-03-13T02:12:28;92577.78;;;6.53;63.62
59289;BME280;45056;47.602;9.886;2023-03-13T02:15:04;92583.50;;;6.55;63.82
59289;BME280;45056;47.602;9.886;2023-03-13T02:17:37;92580.81;;;6.55;63.85
59289;BME280;45056;47.602;9.886;2023-03-13T02:20:08;92581.25;;;6.53;63.73
59289;BME280;45056;47.602;9.886;2023-03-13T02:22:45;92574.31;;;6.52;63.66
59289;BME280;45056;47.602;9.886;2023-03-13T02:25:29;92567.41;;;6.51;63.78
59289;BME280;45056;47.602;9.886;2023-03-13T02:28:05;92574.31;;;6.52;63.68
59289;BME280;45056;47.602;9.886;2023-03-13T02:30:38;92578.97;;;6.52;63.60
59289;BME280;45056;47.602;9.886;2023-03-13T02:33:10;92566.63;;;6.50;63.44
59289;BME280;45056;47.602;9.886;2023-03-13T02:35:41;92572.03;;;6.50;63.49
59289;BME280;45056;47.602;9.886;2023-03-13T02:38:15;92571.63;;;6.52;63.65
59289;BME280;45056;47.602;9.886;2023-03-13T02:40:51;92566.22;;;6.52;63.42
59289;BME280;45056;47.602;9.886;2023-03-13T02:43:25;92558.09;;;6.52;63.35
59289;BME280;45056;47.602;9.886;2023-03-13T02:46:00;92569.66;;;6.53;63.06
59289;BME280;45056;47.602;9.886;2023-03-13T02:48:35;92563.50;;;6.52;62.82
59289;BME280;45056;47.602;9.886;2023-03-13T02:51:11;92557.66;;;6.54;62.65
59289;BME280;45056;47.602;9.886;2023-03-13T02:53:45;92563.44;;;6.56;62.53
59289;BME280;45056;47.602;9.886;2023-03-13T02:56:21;92558.38;;;6.58;62.41
59289;BME280;45056;47.602;9.886;2023-03-13T02:58:53;92553.28;;;6.60;62.20
59289;BME280;45056;47.602;9.886;2023-03-13T03:01:21;92555.13;;;6.63;62.08
59289;BME280;45056;47.602;9.886;2023-03-13T03:03:49;92555.47;;;6.65;62.11
59289;BME280;45056;47.602;9.886;2023-03-13T03:06:17;92553.09;;;6.67;61.89
59289;BME280;45056;47.602;9.886;2023-03-13T03:08:45;92553.44;;;6.69;61.86
59289;BME280;45056;47.602;9.886;2023-03-13T03:11:13;92548.03;;;6.69;61.65
59289;BME280;45056;47.602;9.886;2023-03-13T03:13:43;92552.25;;;6.70;61.61
59289;BME280;45056;47.602;9.886;2023-03-13T03:16:14;92544.88;;;6.71;61.69
59289;BME280;45056;47.602;9.886;2023-03-13T03:18:44;92539.47;;;6.71;61.67
59289;BME280;45056;47.602;9.886;2023-03-13T03:21:12;92549.13;;;6.72;61.60
59289;BME280;45056;47.602;9.886;2023-03-13T03:23:40;92543.72;;;6.72;61.41
59289;BME280;45056;47.602;9.886;2023-03-13T03:26:08;92533.31;;;6.70;61.26
59289;BME280;45056;47.602;9.886;2023-03-13T03:28:36;92528.31;;;6.69;61.23
59289;BME280;45056;47.602;9.886;2023-03-13T03:31:08;92531.03;;;6.69;61.27
59289;BME280;45056;47.602;9.886;2023-03-13T03:33:38;92517.19;;;6.67;61.09
59289;BME280;45056;47.602;9.886;2023-03-13T03:36:10;92519.13;;;6.66;61.10
59289;BME280;45056;47.602;9.886;2023-03-13T03:38:42;92517.94;;;6.67;60.98
59289;BME280;45056;47.602;9.886;2023-03-13T03:41:11;92502.16;;;6.66;61.09
59289;BME280;45056;47.602;9.886;2023-03-13T03:43:40;92509.50;;;6.65;61.03
59289;BME280;45056;47.602;9.886;2023-03-13T03:46:10;92501.41;;;6.65;60.93
59289;BME280;45056;47.602;9.886;2023-03-13T03:48:38;92501.06;;;6.63;60.76
59289;BME280;45056;47.602;9.886;2023-03-13T03:51:07;92498.38;;;6.63;60.68
59289;BME280;45056;47.602;9.886;2023-03-13T03:53:35;92492.19;;;6.62;60.60
59289;BME280;45056;47.602;9.886;2023-03-13T03:56:04;92494.47;;;6.64;60.22
59289;BME280;45056;47.602;9.886;2023-03-13T03:58:33;92487.88;;;6.65;60.11
59289;BME280;45056;47.602;9.886;2023-03-13T04:01:01;92484.75;;;6.67;59.86
59289;BME280;45056;47.602;9.886;2023-03-13T04:03:31;92483.13;;;6.69;59.50
59289;BME280;45056;47.602;9.886;2023-03-13T04:05:59;92479.56;;;6.72;59.10
59289;BME280;45056;47.602;9.886;2023-03-13T04:08:27;92483.72;;;6.77;58.77
59289;BME280;45056;47.602;9.886;2023-03-13T04:10:55;92475.81;;;6.83;58.53
59289;BME280;45056;47.602;9.886;2023-03-13T04:13:23;92478.00;;;6.88;58.21
59289;BME280;45056;47.602;9.886;2023-03-13T04:15:51;92477.16;;;6.91;57.94
59289;BME280;45056;47.602;9.886;2023-03-13T04:18:19;92468.59;;;6.92;58.01
59289;BME280;45056;47.602;9.886;2023-03-13T04:20:48;92473.59;;;6.94;57.96
59289;BME280;45056;47.602;9.886;2023-03-13T04:23:16;92460.38;;;6.96;57.98
59289;BME280;45056;47.602;9.886;2023-03-13T04:25:44;92470.03;;;6.97;57.76
59289;BME280;45056;47.602;9.886;2023-03-13T04:28:13;92474.25;;;6.98;57.53
59289;BME280;45056;47.602;9.886;2023-03-13T04:30:41;92475.75;;;6.99;57.35
59289;BME280;45056;47.602;9.886;2023-03-13T04:33:09;92471.88;;;7.00;56.74
59289;BME280;45056;47.602;9.886;2023-03-13T04:35:37;92469.50;;;7.02;56.50
59289;BME280;45056;47.602;9.886;2023-03-13T04:38:06;92476.00;;;7.05;56.05
59289;BME280;45056;47.602;9.886;2023-03-13T04:40:34;92473.16;;;7.08;55.84
59289;BME280;45056;47.602;9.886;2023-03-13T04:43:02;92461.50;;;7.12;55.14
59289;BME280;45056;47.602;9.886;2023-03-13T04:45:30;92469.94;;;7.14;54.84
59289;BME280;45056;47.602;9.886;2023-03-13T04:47:58;92467.53;;;7.16;54.91
59289;BME280;45056;47.602;9.886;2023-03-13T04:50:26;92467.47;;;7.19;54.73
59289;BME280;45056;47.602;9.886;2023-03-13T04:52:54;92471.59;;;7.24;54.52
59289;BME280;45056;47.602;9.886;2023-03-13T04:55:23;92464.13;;;7.28;54.58
59289;BME280;45056;47.602;9.886;2023-03-13T04:57:51;92470.19;;;7.32;54.84
59289;BME280;45056;47.602;9.886;2023-03-13T05:00:20;92470.09;;;7.36;54.70
59289;BME280;45056;47.602;9.886;2023-03-13T05:02:48;92460.31;;;7.39;54.73
59289;BME280;45056;47.602;9.886;2023-03-13T05:05:16;92460.66;;;7.41;55.04
59289;BME280;45056;47.602;9.886;2023-03-13T05:07:44;92458.25;;;7.43;55.21
59289;BME280;45056;47.602;9.886;2023-03-13T05:10:12;92460.56;;;7.44;55.03
59289;BME280;45056;47.602;9.886;2023-03-13T05:12:41;92460.88;;;7.46;54.92
59289;BME280;45056;47.602;9.886;2023-03-13T05:15:10;92465.09;;;7.47;54.90
59289;BME280;45056;47.602;9.886;2023-03-13T05:17:38;92463.13;;;7.48;55.13
59289;BME280;45056;47.602;9.886;2023-03-13T05:20:07;92468.91;;;7.50;55.20
59289;BME280;45056;47.602;9.886;2023-03-13T05:22:36;92461.09;;;7.52;55.50
59289;BME280;45056;47.602;9.886;2023-03-13T05:25:05;92458.72;;;7.54;55.93
59289;BME280;45056;47.602;9.886;2023-03-13T05:27:33;92454.81;;;7.55;56.13
59289;BME280;45056;47.602;9.886;2023-03-13T05:30:03;92450.78;;;7.60;55.53
59289;BME280;45056;47.602;9.886;2023-03-13T05:32:32;92454.50;;;7.66;55.35
59289;BME280;45056;47.602;9.886;2023-03-13T05:35:00;92453.63;;;7.69;55.05
59289;BME280;45056;47.602;9.886;2023-03-13T05:37:28;92449.72;;;7.70;54.59
59289;BME280;45056;47.602;9.886;2023-03-13T05:39:56;92447.34;;;7.72;54.11
59289;BME280;45056;47.602;9.886;2023-03-13T05:42:24;92457.72;;;7.74;53.71
59289;BME280;45056;47.602;9.886;2023-03-13T05:44:52;92445.69;;;7.75;53.40
59289;BME280;45056;47.602;9.886;2023-03-13T05:47:21;92460.31;;;7.77;52.98
59289;BME280;45056;47.602;9.886;2023-03-13T05:49:49;92452.53;;;7.79;52.66
59289;BME280;45056;47.602;9.886;2023-03-13T05:52:17;92451.00;;;7.78;52.47
59289;BME280;45056;47.602;9.886;2023-03-13T05:54:45;92449.03;;;7.79;52.60
59289;BME280;45056;47.602;9.886;2023-03-13T05:57:13;92443.31;;;7.77;52.43
59289;BME280;45056;47.602;9.886;2023-03-13T05:59:41;92450.38;;;7.74;52.45
59289;BME280;45056;47.602;9.886;2023-03-13T06:02:09;92457.72;;;7.74;52.36
59289;BME280;45056;47.602;9.886;2023-03-13T06:04:39;92457.84;;;7.70;52.27
59289;BME280;45056;47.602;9.886;2023-03-13T06:07:07;92457.94;;;7.67;52.44
59289;BME280;45056;47.602;9.886;2023-03-13T06:09:35;92464.97;;;7.64;52.37
59289;BME280;45056;47.602;9.886;2023-03-13T06:12:03;92450.38;;;7.61;52.63
59289;BME280;45056;47.602;9.886;2023-03-13T06:14:32;92449.28;;;7.59;52.62
59289;BME280;45056;47.602;9.886;2023-03-13T06:17:00;92443.53;;;7.57;52.69
59289;BME280;45056;47.602;9.886;2023-03-13T06:19:28;92437.38;;;7.56;52.58
59289;BME280;45056;47.602;9.886;2023-03-13T06:21:57;92435.88;;;7.55;52.52
59289;BME280;45056;47.602;9.886;2023-03-13T06:24:25;92428.50;;;7.56;52.69
59289;BME280;45056;47.602;9.886;2023-03-13T06:26:53;92429.25;;;7.56;52.50
59289;BME280;45056;47.602;9.886;2023-03-13T06:29:22;92428.38;;;7.59;52.27
59289;BME280;45056;47.602;9.886;2023-03-13T06:31:54;92434.44;;;7.63;52.15
59289;BME280;45056;47.602;9.886;2023-03-13T06:34:27;92443.22;;;7.68;51.85
59289;BME280;45056;47.602;9.886;2023-03-13T06:36:55;92438.44;;;7.72;51.57
59289;BME280;45056;47.602;9.886;2023-03-13T06:39:25;92439.06;;;7.76;51.59
59289;BME280;45056;47.602;9.886;2023-03-13T06:41:53;92439.41;;;7.78;51.58
59289;BME280;45056;47.602;9.886;2023-03-13T06:44:21;92440.06;;;7.82;51.04
59289;BME280;45056;47.602;9.886;2023-03-13T06:46:49;92436.50;;;7.85;50.94
59289;BME280;45056;47.602;9.886;2023-03-13T06:49:17;92446.44;;;7.88;51.03
59289;BME280;45056;47.602;9.886;2023-03-13T06:51:47;92437.44;;;7.91;51.28
59289;BME280;45056;47.602;9.886;2023-03-13T06:54:15;92437.75;;;7.93;51.32
59289;BME280;45056;47.602;9.886;2023-03-13T06:56:44;92443.81;;;7.98;51.28
59289;BME280;45056;47.602;9.886;2023-03-13T06:59:12;92445.66;;;8.01;51.52
59289;BME280;45056;47.602;9.886;2023-03-13T07:01:40;92438.63;;;8.03;51.60
59289;BME280;45056;47.602;9.886;2023-03-13T07:04:11;92441.97;;;8.07;52.12
59289;BME280;45056;47.602;9.886;2023-03-13T07:06:40;92436.09;;;8.09;53.04
59289;BME280;45056;47.602;9.886;2023-03-13T07:09:08;92428.28;;;8.11;53.30
59289;BME280;45056;47.602;9.886;2023-03-13T07:11:37;92426.66;;;8.14;53.00
59289;BME280;45056;47.602;9.886;2023-03-13T07:14:06;92431.66;;;8.15;52.56
59289;BME280;45056;47.602;9.886;2023-03-13T07:16:34;92433.81;;;8.20;52.14
59289;BME280;45056;47.602;9.886;2023-03-13T07:19:02;92440.94;;;8.27;50.70
59289;BME280;45056;47.602;9.886;2023-03-13T07:21:30;92451.09;;;8.36;49.85
59289;BME280;45056;47.602;9.886;2023-03-13T07:23:58;92447.28;;;8.46;49.24
59289;BME280;45056;47.602;9.886;2023-03-13T07:26:26;92451.28;;;8.55;48.71
59289;BME280;45056;47.602;9.886;2023-03-13T07:28:54;92442.16;;;8.61;48.37
59289;BME280;45056;47.602;9.886;2023-03-13T07:31:24;92446.69;;;8.64;48.40
59289;BME280;45056;47.602;9.886;2023-03-13T07:33:53;92450.75;;;8.69;48.43
59289;BME280;45056;47.602;9.886;2023-03-13T07:36:22;92450.22;;;8.74;48.79
59289;BME280;45056;47.602;9.886;2023-03-13T07:38:51;92446.47;;;8.81;49.33
59289;BME280;45056;47.602;9.886;2023-03-13T07:41:20;92442.00;;;8.87;49.83
59289;BME280;45056;47.602;9.886;2023-03-13T07:43:48;92444.91;;;8.93;49.86
59289;BME280;45056;47.602;9.886;2023-03-13T07:46:18;92438.16;;;8.98;50.23
59289;BME280;45056;47.602;9.886;2023-03-13T07:48:48;92445.41;;;9.01;50.51
59289;BME280;45056;47.602;9.886;2023-03-13T07:51:18;92446.16;;;9.01;50.35
59289;BME280;45056;47.602;9.886;2023-03-13T07:53:48;92440.72;;;9.01;50.07
59289;BME280;45056;47.602;9.886;2023-03-13T07:56:19;92434.97;;;8.99;49.87
59289;BME280;45056;47.602;9.886;2023-03-13T07:58:49;92427.72;;;8.96;49.57
59289;BME280;45056;47.602;9.886;2023-03-13T08:01:20;92423.06;;;8.97;49.86
59289;BME280;45056;47.602;9.886;2023-03-13T08:03:50;92414.47;;;8.98;49.93
59289;BME280;45056;47.602;9.886;2023-03-13T08:06:21;92415.09;;;9.02;49.54
59289;BME280;45056;47.602;9.886;2023-03-13T08:08:51;92409.56;;;9.06;49.62
59289;BME280;45056;47.602;9.886;2023-03-13T08:11:22;92406.41;;;9.07;49.81
59289;BME280;45056;47.602;9.886;2023-03-13T08:13:51;92414.09;;;9.09;49.97
59289;BME280;45056;47.602;9.886;2023-03-13T08:16:22;92414.84;;;9.09;50.10
59289;BME280;45056;47.602;9.886;2023-03-13T08:18:55;92407.59;;;9.06;50.08
59289;BME280;45056;47.602;9.886;2023-03-13T08:21:26;92414.53;;;9.07;50.09
59289;BME280;45056;47.602;9.886;2023-03-13T08:23:58;92414.84;;;9.09;50.05
59289;BME280;45056;47.602;9.886;2023-03-13T08:26:28;92417.88;;;9.12;49.71
59289;BME280;45056;47.602;9.886;2023-03-13T08:28:59;92420.91;;;9.14;48.89
59289;BME280;45056;47.602;9.886;2023-03-13T08:31:31;92421.53;;;9.18;49.00
59289;BME280;45056;47.602;9.886;2023-03-13T08:34:02;92415.63;;;9.19;48.86
59289;BME280;45056;47.602;9.886;2023-03-13T08:36:32;92407.38;;;9.23;48.37
59289;BME280;45056;47.602;9.886;2023-03-13T08:39:04;92402.88;;;9.29;47.11
59289;BME280;45056;47.602;9.886;2023-03-13T08:41:35;92411.50;;;9.37;46.62
59289;BME280;45056;47.602;9.886;2023-03-13T08:44:07;92408.81;;;9.46;46.73
59289;BME280;45056;47.602;9.886;2023-03-13T08:46:38;92407.78;;;9.53;46.71
59289;BME280;45056;47.602;9.886;2023-03-13T08:49:08;92401.75;;;9.58;46.54
59289;BME280;45056;47.602;9.886;2023-03-13T08:51:38;92405.56;;;9.61;46.65
59289;BME280;45056;47.602;9.886;2023-03-13T08:54:07;92406.59;;;9.63;46.38
59289;BME280;45056;47.602;9.886;2023-03-13T08:56:35;92418.53;;;9.66;46.72
59289;BME280;45056;47.602;9.886;2023-03-13T08:59:05;92413.84;;;9.66;46.84
59289;BME280;45056;47.602;9.886;2023-03-13T09:01:34;92423.53;;;9.67;46.95
59289;BME280;45056;47.602;9.886;2023-03-13T09:04:04;92414.50;;;9.71;47.16
59289;BME280;45056;47.602;9.886;2023-03-13T09:06:36;92416.31;;;9.74;47.07
59289;BME280;45056;47.602;9.886;2023-03-13T09:09:06;92408.31;;;9.79;46.70
59289;BME280;45056;47.602;9.886;2023-03-13T09:11:35;92398.81;;;9.84;46.07
59289;BME280;45056;47.602;9.886;2023-03-13T09:14:06;92414.09;;;9.91;45.75
59289;BME280;45056;47.602;9.886;2023-03-13T09:16:36;92398.25;;;9.99;45.48
59289;BME280;45056;47.602;9.886;2023-03-13T09:19:05;92404.91;;;10.07;45.18
59289;BME280;45056;47.602;9.886;2023-03-13T09:21:34;92395.53;;;10.17;44.89
59289;BME280;45056;47.602;9.886;2023-03-13T09:24:03;92404.75;;;10.29;44.81
59289;BME280;45056;47.602;9.886;2023-03-13T09:26:31;92391.78;;;10.43;44.75
59289;BME280;45056;47.602;9.886;2023-03-13T09:28:59;92385.75;;;10.57;44.07
59289;BME280;45056;47.602;9.886;2023-03-13T09:31:29;92374.25;;;10.72;43.77
59289;BME280;45056;47.602;9.886;2023-03-13T09:33:59;92376.78;;;10.94;43.58
59289;BME280;45056;47.602;9.886;2023-03-13T09:36:28;92384.72;;;11.16;43.35
59289;BME280;45056;47.602;9.886;2023-03-13T09:38:59;92375.41;;;11.42;42.90
59289;BME280;45056;47.602;9.886;2023-03-13T09:41:34;92368.47;;;11.65;42.33
59289;BME280;45056;47.602;9.886;2023-03-13T09:44:19;92368.97;;;11.88;42.05
59289;BME280;45056;47.602;9.886;2023-03-13T09:47:01;92357.78;;;12.10;42.36
59289;BME280;45056;47.602;9.886;2023-03-13T09:49:41;92355.38;;;12.27;42.02
59289;BME280;45056;47.602;9.886;2023-03-13T09:52:18;92361.94;;;12.45;40.85
59289;BME280;45056;47.602;9.886;2023-03-13T09:54:55;92349.34;;;12.62;40.92
59289;BME280;45056;47.602;9.886;2023-03-13T09:57:33;92333.84;;;12.83;41.09
59289;BME280;45056;47.602;9.886;2023-03-13T10:00:09;92334.94;;;13.07;41.08
59289;BME280;45056;47.602;9.886;2023-03-13T10:02:45;92322.59;;;13.26;41.06
59289;BME280;45056;47.602;9.886;2023-03-13T10:05:28;92327.66;;;13.49;41.60
59289;BME280;45056;47.602;9.886;2023-03-13T10:08:07;92324.19;;;13.69;41.64
59289;BME280;45056;47.602;9.886;2023-03-13T10:10:47;92324.78;;;13.94;41.98
59289;BME280;45056;47.602;9.886;2023-03-13T10:13:28;92315.03;;;14.13;42.63
59289;BME280;45056;47.602;9.886;2023-03-13T10:16:08;92302.53;;;14.27;42.43
59289;BME280;45056;47.602;9.886;2023-03-13T10:18:46;92299.69;;;14.42;42.39
59289;BME280;45056;47.602;9.886;2023-03-13T10:21:21;92304.09;;;14.61;42.92
59289;BME280;45056;47.602;9.886;2023-03-13T10:23:57;92292.16;;;14.84;42.29
59289;BME280;45056;47.602;9.886;2023-03-13T10:26:34;92294.28;;;15.01;41.56
59289;BME280;45056;47.602;9.886;2023-03-13T10:29:19;92284.91;;;15.13;41.68
59289;BME280;45056;47.602;9.886;2023-03-13T10:31:55;92294.97;;;15.28;41.28
59289;BME280;45056;47.602;9.886;2023-03-13T10:34:27;92297.56;;;15.43;41.05
59289;BME280;45056;47.602;9.886;2023-03-13T10:36:59;92291.41;;;15.54;40.75
59289;BME280;45056;47.602;9.886;2023-03-13T10:39:28;92299.88;;;15.56;40.61
59289;BME280;45056;47.602;9.886;2023-03-13T10:42:08;92289.72;;;15.62;40.75
59289;BME280;45056;47.602;9.886;2023-03-13T10:44:37;92280.75;;;15.67;40.94
59289;BME280;45056;47.602;9.886;2023-03-13T10:47:08;92274.56;;;15.72;40.41
59289;BME280;45056;47.602;9.886;2023-03-13T10:49:47;92282.56;;;15.76;40.64
59289;BME280;45056;47.602;9.886;2023-03-13T10:52:32;92268.84;;;15.82;40.62
59289;BME280;45056;47.602;9.886;2023-03-13T10:55:04;92272.41;;;15.88;40.60
59289;BME280;45056;47.602;9.886;2023-03-13T10:57:40;92271.69;;;15.99;40.70
59289;BME280;45056;47.602;9.886;2023-03-13T11:00:32;92267.78;;;16.11;40.30
59289;BME280;45056;47.602;9.886;2023-03-13T11:03:06;92260.81;;;16.22;40.21
59289;BME280;45056;47.602;9.886;2023-03-13T11:05:44;92251.34;;;16.34;39.59
59289;BME280;45056;47.602;9.886;2023-03-13T11:08:24;92245.88;;;16.40;39.28
59289;BME280;45056;47.602;9.886;2023-03-13T11:10:58;92249.38;;;16.40;39.15
59289;BME280;45056;47.602;9.886;2023-03-13T11:13:38;92242.38;;;16.39;39.67
59289;BME280;45056;47.602;9.886;2023-03-13T11:16:17;92235.16;;;16.42;39.72
59289;BME280;45056;47.602;9.886;2023-03-13T11:19:14;92232.91;;;16.46;39.91
59289;BME280;45056;47.602;9.886;2023-03-13T11:22:09;92222.94;;;16.49;39.37
59289;BME280;45056;47.602;9.886;2023-03-13T11:25:13;92222.66;;;16.52;39.48
59289;BME280;45056;47.602;9.886;2023-03-13T11:27:58;92224.19;;;16.59;39.81
59289;BME280;45056;47.602;9.886;2023-03-13T11:30:47;92209.22;;;16.66;40.65
59289;BME280;45056;47.602;9.886;2023-03-13T11:33:29;92208.72;;;16.79;41.72
59289;BME280;45056;47.602;9.886;2023-03-13T11:36:14;92216.94;;;16.90;41.85
59289;BME280;45056;47.602;9.886;2023-03-13T11:38:53;92218.19;;;16.95;41.68
59289;BME280;45056;47.602;9.886;2023-03-13T11:41:41;92216.72;;;16.99;41.74
59289;BME280;45056;47.602;9.886;2023-03-13T11:44:29;92211.22;;;17.11;41.75
59289;BME280;45056;47.602;9.886;2023-03-13T11:47:19;92208.19;;;17.26;41.87
59289;BME280;45056;47.602;9.886;2023-03-13T11:50:29;92189.16;;;17.39;41.71
59289;BME280;45056;47.602;9.886;2023-03-13T11:53:24;92181.63;;;17.45;41.18
59289;BME280;45056;47.602;9.886;2023-03-13T11:56:10;92174.41;;;17.48;41.25
59289;BME280;45056;47.602;9.886;2023-03-13T11:58:59;92172.91;;;17.47;41.99
59289;BME280;45056;47.602;9.886;2023-03-13T12:01:45;92163.41;;;17.48;42.31
59289;BME280;45056;47.602;9.886;2023-03-13T12:04:25;92162.91;;;17.50;42.26
59289;BME280;45056;47.602;9.886;2023-03-13T12:07:02;92150.13;;;17.52;42.34
59289;BME280;45056;47.602;9.886;2023-03-13T12:09:43;92158.38;;;17.58;42.90
59289;BME280;45056;47.602;9.886;2023-03-13T12:12:24;92160.34;;;17.63;42.66
59289;BME280;45056;47.602;9.886;2023-03-13T12:15:14;92155.56;;;17.69;42.65
59289;BME280;45056;47.602;9.886;2023-03-13T12:17:52;92141.53;;;17.79;42.56
59289;BME280;45056;47.602;9.886;2023-03-13T12:20:38;92136.75;;;17.85;42.14
59289;BME280;45056;47.602;9.886;2023-03-13T12:23:16;92138.94;;;17.92;42.54
59289;BME280;45056;47.602;9.886;2023-03-13T12:25:52;92141.69;;;17.98;42.75
59289;BME280;45056;47.602;9.886;2023-03-13T12:28:31;92139.88;;;18.12;42.63
59289;BME280;45056;47.602;9.886;2023-03-13T12:31:12;92130.03;;;18.22;41.97
59289;BME280;45056;47.602;9.886;2023-03-13T12:33:52;92122.81;;;18.19;42.02
59289;BME280;45056;47.602;9.886;2023-03-13T12:36:34;92109.31;;;18.15;42.09
59289;BME280;45056;47.602;9.886;2023-03-13T12:39:21;92102.31;;;18.14;42.14
59289;BME280;45056;47.602;9.886;2023-03-13T12:42:22;92090.78;;;18.16;42.13
59289;BME280;45056;47.602;9.886;2023-03-13T12:45:01;92090.97;;;18.24;42.47
59289;BME280;45056;47.602;9.886;2023-03-13T12:47:34;92087.38;;;18.35;42.51
59289;BME280;45056;47.602;9.886;2023-03-13T12:50:37;92081.00;;;18.51;42.24
59289;BME280;45056;47.602;9.886;2023-03-13T12:56:49;92065.75;;;18.75;41.31
59289;BME280;45056;47.602;9.886;2023-03-13T12:59:34;92056.88;;;18.88;41.20
59289;BME280;45056;47.602;9.886;2023-03-13T13:02:14;92053.00;;;18.97;41.19
59289;BME280;45056;47.602;9.886;2023-03-13T13:04:48;92049.22;;;19.00;40.16
59289;BME280;45056;47.602;9.886;2023-03-13T13:07:24;92057.97;;;19.04;40.36
59289;BME280;45056;47.602;9.886;2023-03-13T13:13:18;92034.88;;;19.07;40.18
59289;BME280;45056;47.602;9.886;2023-03-13T13:16:02;92026.31;;;19.11;40.56
59289;BME280;45056;47.602;9.886;2023-03-13T13:18:34;92030.50;;;19.17;40.41
59289;BME280;45056;47.602;9.886;2023-03-13T13:21:21;92010.69;;;19.19;39.99
59289;BME280;45056;47.602;9.886;2023-03-13T13:23:52;92004.66;;;19.21;39.68
59289;BME280;45056;47.602;9.886;2023-03-13T13:26:48;92006.56;;;19.26;39.84
59289;BME280;45056;47.602;9.886;2023-03-13T13:32:42;91984.06;;;19.41;40.13
59289;BME280;45056;47.602;9.886;2023-03-13T13:35:22;91973.25;;;19.43;39.42
59289;BME280;45056;47.602;9.886;2023-03-13T13:41:24;91973.47;;;19.45;39.44
59289;BME280;45056;47.602;9.886;2023-03-13T13:44:24;91951.84;;;19.49;39.21
59289;BME280;45056;47.602;9.886;2023-03-13T13:46:56;91947.09;;;19.50;38.41
59289;BME280;45056;47.602;9.886;2023-03-13T13:49:52;91938.16;;;19.43;37.75
59289;BME280;45056;47.602;9.886;2023-03-13T13:52:37;91923.72;;;19.37;38.19